createdAt,value
2022-10-15T00:01:34.842Z,70.20
2022-10-15T00:04:04.701Z,70.20
2022-10-15T00:06:33.281Z,70.20
2022-10-15T00:09:01.423Z,70.20
2022-10-15T00:11:29.979Z,70.20
2022-10-15T00:14:00.433Z,70.20
2022-10-15T00:16:30.374Z,70.20
2022-10-15T00:18:59.564Z,70.20
2022-10-15T00:21:29.506Z,70.20
2022-10-15T00:23:58.043Z,70.20
2022-10-15T00:26:28.401Z,70.30
2022-10-15T00:28:59.486Z,70.30
2022-10-15T00:31:29.271Z,70.30
2022-10-15T00:33:59.385Z,70.30
2022-10-15T00:36:30.519Z,70.30
2022-10-15T00:38:59.200Z,70.30
2022-10-15T00:41:32.144Z,70.90
2022-10-15T00:44:01.497Z,70.40
2022-10-15T00:46:34.548Z,70.30
2022-10-15T00:49:10.406Z,70.30
2022-10-15T00:51:44.122Z,70.30
2022-10-15T00:54:13.096Z,70.30
2022-10-15T00:56:42.632Z,70.30
2022-10-15T00:59:12.903Z,70.30
2022-10-15T01:01:41.824Z,70.30
2022-10-15T01:04:10.317Z,70.30
2022-10-15T01:06:40.500Z,70.30
2022-10-15T01:09:08.756Z,70.30
2022-10-15T01:11:42.193Z,70.30
2022-10-15T01:14:28.466Z,70.30
2022-10-15T01:17:00.923Z,70.30
2022-10-15T01:19:50.777Z,70.40
2022-10-15T01:22:36.280Z,70.30
2022-10-15T01:25:14.377Z,70.40
2022-10-15T01:27:44.872Z,70.40
2022-10-15T01:30:23.439Z,70.30
2022-10-15T01:33:18.406Z,70.30
2022-10-15T01:35:50.627Z,70.40
2022-10-15T01:38:34.003Z,70.40
2022-10-15T01:41:08.510Z,70.40
2022-10-15T01:43:41.095Z,70.40
2022-10-15T01:46:16.645Z,70.40
2022-10-15T01:48:44.995Z,70.40
2022-10-15T01:51:16.491Z,70.40
2022-10-15T01:53:46.901Z,70.40
2022-10-15T01:56:19.362Z,70.40
2022-10-15T01:58:50.291Z,71.00
2022-10-15T02:01:19.566Z,70.40
2022-10-15T02:03:48.803Z,70.40
2022-10-15T02:06:22.775Z,70.40
2022-10-15T02:09:00.788Z,70.40
2022-10-15T02:11:29.105Z,70.40
2022-10-15T02:14:03.226Z,70.40
2022-10-15T02:16:41.018Z,70.40
2022-10-15T02:19:16.954Z,70.40
2022-10-15T02:21:49.364Z,70.40
2022-10-15T02:24:23.492Z,70.40
2022-10-15T02:26:54.973Z,70.40
2022-10-15T02:29:25.365Z,70.40
2022-10-15T02:31:57.252Z,70.40
2022-10-15T02:34:31.762Z,70.40
2022-10-15T02:37:02.518Z,70.40
2022-10-15T02:39:31.627Z,70.40
2022-10-15T02:41:59.835Z,70.40
2022-10-15T02:44:28.008Z,70.40
2022-10-15T02:46:58.707Z,70.40
2022-10-15T02:49:26.802Z,70.40
2022-10-15T02:51:54.845Z,70.40
2022-10-15T02:54:23.058Z,70.40
2022-10-15T02:56:51.195Z,70.40
2022-10-15T02:59:19.857Z,70.40
2022-10-15T03:01:48.013Z,70.40
2022-10-15T03:04:17.520Z,70.40
2022-10-15T03:06:45.711Z,70.40
2022-10-15T03:09:13.782Z,70.40
2022-10-15T03:11:41.867Z,70.40
2022-10-15T03:14:10.105Z,70.40
2022-10-15T03:16:38.191Z,70.40
2022-10-15T03:19:06.297Z,70.40
2022-10-15T03:21:35.727Z,70.40
2022-10-15T03:24:03.944Z,70.40
2022-10-15T03:26:32.094Z,70.40
2022-10-15T03:29:00.216Z,70.40
2022-10-15T03:31:28.330Z,70.40
2022-10-15T03:33:56.836Z,70.50
2022-10-15T03:36:25.052Z,70.40
2022-10-15T03:38:54.486Z,70.50
2022-10-15T03:41:22.499Z,70.40
2022-10-15T03:43:50.640Z,70.40
2022-10-15T03:46:18.747Z,70.40
2022-10-15T03:48:50.273Z,70.40
2022-10-15T03:51:22.729Z,70.40
2022-10-15T03:53:55.232Z,70.40
2022-10-15T03:56:23.320Z,70.40
2022-10-15T03:58:51.428Z,70.40
2022-10-15T04:01:20.067Z,70.40
2022-10-15T04:03:48.287Z,70.40
2022-10-15T04:06:16.390Z,70.40
2022-10-15T04:08:44.520Z,70.40
2022-10-15T04:11:14.155Z,70.40
2022-10-15T04:13:42.269Z,70.40
2022-10-15T04:16:10.375Z,70.40
2022-10-15T04:18:38.453Z,70.40
2022-10-15T04:21:06.584Z,70.40
2022-10-15T04:23:34.677Z,70.50
2022-10-15T04:26:03.138Z,70.40
2022-10-15T04:28:33.247Z,70.40
2022-10-15T04:31:02.446Z,70.50
2022-10-15T04:33:30.733Z,70.40
2022-10-15T04:36:03.319Z,70.40
2022-10-15T04:38:31.492Z,70.40
2022-10-15T04:41:01.810Z,70.40
2022-10-15T04:43:30.505Z,70.40
2022-10-15T04:46:01.677Z,70.40
2022-10-15T04:48:30.934Z,70.50
2022-10-15T04:51:05.408Z,70.40
2022-10-15T04:53:33.988Z,70.40
2022-10-15T04:56:03.607Z,70.40
2022-10-15T04:58:33.208Z,70.40
2022-10-15T05:01:03.533Z,70.40
2022-10-15T05:06:02.988Z,70.40
2022-10-15T05:08:31.437Z,70.40
2022-10-15T05:11:02.942Z,70.50
2022-10-15T05:13:31.899Z,70.40
2022-10-15T05:16:12.044Z,70.40
2022-10-15T05:18:40.546Z,70.50
2022-10-15T05:21:09.340Z,70.40
2022-10-15T05:23:37.917Z,70.40
2022-10-15T05:26:08.412Z,70.50
2022-10-15T05:28:36.925Z,70.40
2022-10-15T05:31:06.941Z,70.40
2022-10-15T05:33:36.805Z,70.40
2022-10-15T05:36:12.797Z,70.40
2022-10-15T05:38:41.480Z,70.40
2022-10-15T05:41:09.624Z,70.40
2022-10-15T05:43:41.158Z,70.40
2022-10-15T05:46:10.179Z,70.40
2022-10-15T05:48:39.667Z,70.40
2022-10-15T05:51:09.945Z,70.40
2022-10-15T05:53:38.608Z,70.40
2022-10-15T05:56:08.131Z,70.40
2022-10-15T05:58:37.791Z,70.40
2022-10-15T06:01:08.522Z,70.40
2022-10-15T06:03:36.596Z,70.50
2022-10-15T06:06:06.478Z,70.50
2022-10-15T06:08:34.607Z,70.60
2022-10-15T06:11:09.359Z,70.50
2022-10-15T06:13:39.784Z,70.50
2022-10-15T06:16:08.253Z,70.50
2022-10-15T06:18:36.958Z,70.50
2022-10-15T06:21:07.535Z,70.50
2022-10-15T06:23:36.262Z,70.50
2022-10-15T06:26:05.160Z,70.50
2022-10-15T06:28:33.417Z,70.50
2022-10-15T06:31:02.262Z,70.50
2022-10-15T06:33:31.120Z,70.50
2022-10-15T06:36:02.900Z,70.50
2022-10-15T06:38:32.418Z,70.50
2022-10-15T06:41:00.735Z,70.50
2022-10-15T06:43:31.123Z,70.50
2022-10-15T06:46:01.411Z,70.50
2022-10-15T06:48:29.547Z,70.50
2022-10-15T06:51:00.791Z,70.50
2022-10-15T06:53:29.506Z,70.50
2022-10-15T06:56:03.909Z,70.50
2022-10-15T06:58:32.040Z,70.50
2022-10-15T07:01:03.701Z,70.50
2022-10-15T07:03:31.874Z,70.50
2022-10-15T07:06:03.476Z,70.50
2022-10-15T07:08:31.593Z,70.50
2022-10-15T07:11:01.897Z,70.50
2022-10-15T07:13:30.878Z,70.50
2022-10-15T07:15:59.071Z,70.50
2022-10-15T07:18:27.118Z,70.60
2022-10-15T07:20:55.199Z,70.60
2022-10-15T07:23:26.988Z,70.60
2022-10-15T07:25:56.215Z,70.60
2022-10-15T07:28:25.997Z,70.50
2022-10-15T07:30:54.477Z,70.50
2022-10-15T07:33:22.725Z,70.50
2022-10-15T07:35:50.800Z,70.60
2022-10-15T07:38:19.055Z,70.60
2022-10-15T07:40:47.296Z,70.60
2022-10-15T07:43:15.944Z,70.60
2022-10-15T07:45:49.398Z,70.50
2022-10-15T07:48:17.763Z,70.40
2022-10-15T07:50:45.963Z,70.40
2022-10-15T07:53:15.366Z,70.40
2022-10-15T07:55:44.832Z,70.40
2022-10-15T07:58:13.092Z,70.40
2022-10-15T08:00:41.171Z,70.40
2022-10-15T08:03:10.606Z,70.40
2022-10-15T08:05:38.695Z,70.40
2022-10-15T08:08:06.763Z,70.40
2022-10-15T08:10:34.885Z,71.00
2022-10-15T08:13:03.017Z,70.40
2022-10-15T08:15:31.089Z,70.40
2022-10-15T08:18:00.882Z,70.40
2022-10-15T08:20:30.324Z,70.50
2022-10-15T08:22:58.761Z,70.40
2022-10-15T08:25:26.969Z,70.40
2022-10-15T08:27:55.250Z,70.40
2022-10-15T08:30:23.660Z,70.40
2022-10-15T08:32:51.805Z,70.40
2022-10-15T08:35:19.853Z,70.40
2022-10-15T08:37:49.309Z,70.40
2022-10-15T08:40:18.028Z,70.40
2022-10-15T08:42:48.998Z,70.30
2022-10-15T08:45:20.257Z,70.30
2022-10-15T08:47:52.443Z,70.30
2022-10-15T08:50:28.253Z,70.30
2022-10-15T08:53:00.181Z,70.30
2022-10-15T08:55:35.812Z,71.00
2022-10-15T08:58:13.877Z,70.30
2022-10-15T09:00:45.535Z,70.30
2022-10-15T09:03:28.916Z,70.30
2022-10-15T09:06:06.888Z,70.30
2022-10-15T09:08:44.483Z,70.30
2022-10-15T09:11:19.892Z,70.30
2022-10-15T09:13:49.297Z,70.30
2022-10-15T09:16:19.496Z,70.30
2022-10-15T09:18:49.509Z,70.30
2022-10-15T09:21:18.347Z,70.30
2022-10-15T09:23:47.954Z,70.30
2022-10-15T09:26:26.997Z,70.30
2022-10-15T09:29:02.726Z,70.30
2022-10-15T09:31:36.455Z,70.30
2022-10-15T09:34:12.244Z,70.30
2022-10-15T09:36:44.207Z,70.30
2022-10-15T09:39:29.760Z,70.30
2022-10-15T09:42:07.788Z,70.30
2022-10-15T09:44:40.188Z,70.30
2022-10-15T09:47:18.242Z,70.90
2022-10-15T09:49:46.381Z,70.30
2022-10-15T09:52:23.471Z,70.30
2022-10-15T09:55:03.164Z,70.30
2022-10-15T09:57:34.351Z,70.30
2022-10-15T10:00:06.507Z,70.30
2022-10-15T10:02:34.627Z,70.30
2022-10-15T10:05:20.615Z,70.30
2022-10-15T10:07:48.673Z,70.30
2022-10-15T10:10:27.197Z,70.30
2022-10-15T10:12:57.159Z,70.20
2022-10-15T10:15:34.296Z,70.30
2022-10-15T10:18:05.471Z,70.30
2022-10-15T10:20:34.866Z,70.30
2022-10-15T10:23:05.193Z,70.20
2022-10-15T10:25:39.199Z,70.20
2022-10-15T10:28:18.407Z,70.30
2022-10-15T10:30:55.015Z,70.30
2022-10-15T10:33:32.868Z,70.30
2022-10-15T10:36:01.677Z,70.30
2022-10-15T10:38:33.800Z,70.30
2022-10-15T10:41:08.498Z,70.30
2022-10-15T10:43:39.307Z,70.30
2022-10-15T10:46:19.284Z,70.30
2022-10-15T10:48:50.075Z,70.30
2022-10-15T10:51:20.585Z,70.30
2022-10-15T10:53:52.967Z,70.30
2022-10-15T10:56:25.052Z,70.30
2022-10-15T10:59:00.318Z,70.30
2022-10-15T11:01:29.930Z,70.30
2022-10-15T11:03:58.099Z,70.30
2022-10-15T11:06:51.105Z,70.30
2022-10-15T11:09:43.207Z,70.30
2022-10-15T11:12:31.615Z,70.30
2022-10-15T11:15:09.793Z,70.30
2022-10-15T11:17:51.419Z,70.30
2022-10-15T11:20:51.249Z,70.40
2022-10-15T11:23:27.359Z,70.40
2022-10-15T11:26:03.399Z,70.50
2022-10-15T11:28:46.826Z,70.60
2022-10-15T11:34:10.160Z,70.60
2022-10-15T11:36:46.989Z,70.60
2022-10-15T11:39:28.355Z,70.60
2022-10-15T11:42:05.131Z,70.70
2022-10-15T11:44:53.659Z,70.70
2022-10-15T11:47:34.838Z,70.80
2022-10-15T11:50:14.420Z,70.80
2022-10-15T11:52:58.256Z,70.90
2022-10-15T11:55:33.416Z,70.90
2022-10-15T11:58:04.560Z,70.90
2022-10-15T12:00:37.786Z,71.00
2022-10-15T12:03:14.557Z,70.90
2022-10-15T12:05:47.967Z,71.00
2022-10-15T12:08:17.015Z,71.00
